sensor_id;sensor_type;location;lat;lon;timestamp;pressure;altitude;pressure_sealevel;temperature;humidity
70217;BME280;57608;0.000;0.000;2022-11-20T00:32:16;99188.72;;;-0.40;81.24
70217;BME280;57608;0.000;0.000;2022-11-20T00:34:43;99187.91;;;-0.50;81.22
70217;BME280;57608;0.000;0.000;2022-11-20T00:37:09;99196.59;;;-0.69;80.34
70217;BME280;57608;0.000;0.000;2022-11-20T00:39:34;99202.66;;;-0.75;81.06
70217;BME280;57608;0.000;0.000;2022-11-20T00:42:00;99202.63;;;-0.72;81.17
70217;BME280;57608;0.000;0.000;2022-11-20T00:44:26;99204.34;;;-0.71;81.50
70217;BME280;57608;0.000;0.000;2022-11-20T00:46:52;99190.59;;;-0.63;81.86
70217;BME280;57608;0.000;0.000;2022-11-20T00:49:18;99197.47;;;-0.69;82.03
70217;BME280;57608;0.000;0.000;2022-11-20T00:51:44;99193.16;;;-0.63;82.13
70217;BME280;57608;0.000;0.000;2022-11-20T00:54:10;99186.31;;;-0.64;81.88
70217;BME280;57608;0.000;0.000;2022-11-20T00:56:35;99196.75;;;-0.91;80.92
70217;BME280;57608;0.000;0.000;2022-11-20T00:59:02;99183.78;;;-0.74;81.48
70217;BME280;57608;0.000;0.000;2022-11-20T01:01:28;99188.94;;;-0.74;81.69
70217;BME280;57608;0.000;0.000;2022-11-20T01:03:56;99192.38;;;-0.81;81.88
70217;BME280;57608;0.000;0.000;2022-11-20T01:06:25;99200.06;;;-0.72;81.13
70217;BME280;57608;0.000;0.000;2022-11-20T01:08:54;99204.34;;;-0.68;81.50
70217;BME280;57608;0.000;0.000;2022-11-20T01:11:23;99202.63;;;-0.72;81.13
70217;BME280;57608;0.000;0.000;2022-11-20T01:13:51;99202.69;;;-0.78;81.67
70217;BME280;57608;0.000;0.000;2022-11-20T01:16:18;99201.00;;;-0.88;81.16
70217;BME280;57608;0.000;0.000;2022-11-20T01:18:46;99198.47;;;-0.94;81.27
70217;BME280;57608;0.000;0.000;2022-11-20T01:21:19;99197.56;;;-0.87;81.85
70217;BME280;57608;0.000;0.000;2022-11-20T01:23:49;99201.84;;;-0.86;81.38
70217;BME280;57608;0.000;0.000;2022-11-20T01:26:20;99195.81;;;-0.82;81.36
70217;BME280;57608;0.000;0.000;2022-11-20T01:28:47;99197.56;;;-0.89;80.78
70217;BME280;57608;0.000;0.000;2022-11-20T01:31:19;99198.41;;;-0.85;81.18
70217;BME280;57608;0.000;0.000;2022-11-20T01:33:48;99194.97;;;-0.78;81.34
70217;BME280;57608;0.000;0.000;2022-11-20T01:36:15;99199.22;;;-0.74;81.38
70217;BME280;57608;0.000;0.000;2022-11-20T01:38:42;99210.38;;;-0.76;81.37
70217;BME280;57608;0.000;0.000;2022-11-20T01:41:09;99204.38;;;-0.78;81.30
70217;BME280;57608;0.000;0.000;2022-11-20T01:43:36;99201.84;;;-0.83;81.04
70217;BME280;57608;0.000;0.000;2022-11-20T01:46:18;99201.09;;;-1.05;80.50
70217;BME280;57608;0.000;0.000;2022-11-20T01:48:58;99219.88;;;-0.95;81.31
70217;BME280;57608;0.000;0.000;2022-11-20T01:51:33;99219.00;;;-0.91;81.43
70217;BME280;57608;0.000;0.000;2022-11-20T01:54:07;99218.97;;;-0.77;81.75
70217;BME280;57608;0.000;0.000;2022-11-20T01:56:38;99221.44;;;-0.60;82.22
70217;BME280;57608;0.000;0.000;2022-11-20T01:59:08;99223.06;;;-0.47;81.94
70217;BME280;57608;0.000;0.000;2022-11-20T02:01:36;99225.69;;;-0.55;81.62
70217;BME280;57608;0.000;0.000;2022-11-20T02:04:02;99229.06;;;-0.50;81.98
70217;BME280;57608;0.000;0.000;2022-11-20T02:07:05;99236.75;;;-0.39;81.91
70217;BME280;57608;0.000;0.000;2022-11-20T02:09:31;99231.63;;;-0.39;81.68
70217;BME280;57608;0.000;0.000;2022-11-20T02:11:58;99230.69;;;-0.33;81.76
70217;BME280;57608;0.000;0.000;2022-11-20T02:14:24;99245.41;;;-0.55;81.10
70217;BME280;57608;0.000;0.000;2022-11-20T02:16:51;99239.41;;;-0.54;81.32
70217;BME280;57608;0.000;0.000;2022-11-20T02:19:28;99243.69;;;-0.52;81.28
70217;BME280;57608;0.000;0.000;2022-11-20T02:21:57;99238.59;;;-0.59;80.25
70217;BME280;57608;0.000;0.000;2022-11-20T02:24:25;99253.25;;;-0.75;79.93
70217;BME280;57608;0.000;0.000;2022-11-20T02:27:01;99246.38;;;-0.76;79.88
70217;BME280;57608;0.000;0.000;2022-11-20T02:29:35;99255.00;;;-0.88;79.80
70217;BME280;57608;0.000;0.000;2022-11-20T02:32:03;99250.69;;;-0.86;80.23
70217;BME280;57608;0.000;0.000;2022-11-20T02:34:29;99264.34;;;-0.67;80.79
70217;BME280;57608;0.000;0.000;2022-11-20T02:36:56;99261.78;;;-0.67;81.09
70217;BME280;57608;0.000;0.000;2022-11-20T02:39:24;99266.97;;;-0.79;79.99
70217;BME280;57608;0.000;0.000;2022-11-20T02:41:54;99257.53;;;-0.82;80.42
70217;BME280;57608;0.000;0.000;2022-11-20T02:44:21;99258.41;;;-0.81;80.38
70217;BME280;57608;0.000;0.000;2022-11-20T02:46:47;99262.72;;;-0.91;80.37
70217;BME280;57608;0.000;0.000;2022-11-20T02:49:12;99258.41;;;-0.81;80.20
70217;BME280;57608;0.000;0.000;2022-11-20T02:51:38;99263.56;;;-0.83;80.30
70217;BME280;57608;0.000;0.000;2022-11-20T02:54:04;99258.47;;;-0.97;79.96
70217;BME280;57608;0.000;0.000;2022-11-20T02:56:30;99267.84;;;-0.85;80.61
70217;BME280;57608;0.000;0.000;2022-11-20T02:58:56;99267.88;;;-0.91;80.11
70217;BME280;57608;0.000;0.000;2022-11-20T03:01:22;99259.34;;;-1.00;79.63
70217;BME280;57608;0.000;0.000;2022-11-20T03:03:48;99263.59;;;-0.95;79.89
70217;BME280;57608;0.000;0.000;2022-11-20T03:06:16;99262.72;;;-0.91;80.19
70217;BME280;57608;0.000;0.000;2022-11-20T03:08:42;99259.31;;;-0.93;79.65
70217;BME280;57608;0.000;0.000;2022-11-20T03:11:08;99261.06;;;-0.98;79.63
70217;BME280;57608;0.000;0.000;2022-11-20T03:13:35;99268.75;;;-0.97;79.70
70217;BME280;57608;0.000;0.000;2022-11-20T03:16:18;99267.91;;;-1.01;78.38
70217;BME280;57608;0.000;0.000;2022-11-20T03:18:44;99269.59;;;-0.98;80.54
70217;BME280;57608;0.000;0.000;2022-11-20T03:21:12;99272.13;;;-0.81;80.37
70217;BME280;57608;0.000;0.000;2022-11-20T03:23:38;99272.09;;;-0.75;81.22
70217;BME280;57608;0.000;0.000;2022-11-20T03:28:33;99280.69;;;-0.84;79.53
70217;BME280;57608;0.000;0.000;2022-11-20T03:31:05;99274.75;;;-0.93;79.93
70217;BME280;57608;0.000;0.000;2022-11-20T03:33:32;99278.19;;;-0.97;79.26
70217;BME280;57608;0.000;0.000;2022-11-20T03:36:02;99273.00;;;-0.87;79.92
70217;BME280;57608;0.000;0.000;2022-11-20T03:38:32;99273.03;;;-0.94;79.81
70217;BME280;57608;0.000;0.000;2022-11-20T03:41:03;99270.44;;;-0.88;79.63
70217;BME280;57608;0.000;0.000;2022-11-20T03:43:30;99273.00;;;-0.85;79.08
70217;BME280;57608;0.000;0.000;2022-11-20T03:45:56;99276.41;;;-0.75;79.36
70217;BME280;57608;0.000;0.000;2022-11-20T03:48:22;99285.84;;;-0.87;79.02
70217;BME280;57608;0.000;0.000;2022-11-20T03:50:48;99277.28;;;-0.90;79.15
70217;BME280;57608;0.000;0.000;2022-11-20T03:53:15;99276.47;;;-0.97;78.88
70217;BME280;57608;0.000;0.000;2022-11-20T03:55:41;99293.56;;;-0.91;79.59
70217;BME280;57608;0.000;0.000;2022-11-20T03:58:07;99288.44;;;-0.88;79.42
70217;BME280;57608;0.000;0.000;2022-11-20T04:00:33;99294.44;;;-0.94;79.20
70217;BME280;57608;0.000;0.000;2022-11-20T04:03:02;99297.00;;;-0.86;79.49
70217;BME280;57608;0.000;0.000;2022-11-20T04:05:28;99301.28;;;-0.85;78.77
70217;BME280;57608;0.000;0.000;2022-11-20T04:07:54;99301.28;;;-0.84;79.65
70217;BME280;57608;0.000;0.000;2022-11-20T04:10:20;99302.94;;;-0.69;79.67
70217;BME280;57608;0.000;0.000;2022-11-20T04:12:46;99305.53;;;-0.75;79.85
70217;BME280;57608;0.000;0.000;2022-11-20T04:15:12;99297.00;;;-0.88;78.74
70217;BME280;57608;0.000;0.000;2022-11-20T04:17:37;99308.97;;;-0.79;79.40
70217;BME280;57608;0.000;0.000;2022-11-20T04:20:04;99306.38;;;-0.71;78.81
70217;BME280;57608;0.000;0.000;2022-11-20T04:22:30;99304.69;;;-0.78;78.86
70217;BME280;57608;0.000;0.000;2022-11-20T04:24:55;99318.38;;;-0.75;79.19
70217;BME280;57608;0.000;0.000;2022-11-20T04:27:21;99318.34;;;-0.59;79.53
70217;BME280;57608;0.000;0.000;2022-11-20T04:29:47;99323.50;;;-0.62;78.89
70217;BME280;57608;0.000;0.000;2022-11-20T04:32:13;99320.06;;;-0.60;78.52
70217;BME280;57608;0.000;0.000;2022-11-20T04:34:39;99325.16;;;-0.51;78.83
70217;BME280;57608;0.000;0.000;2022-11-20T04:37:05;99319.13;;;-0.45;78.73
70217;BME280;57608;0.000;0.000;2022-11-20T04:39:31;99320.84;;;-0.42;78.27
70217;BME280;57608;0.000;0.000;2022-11-20T04:41:57;99324.25;;;-0.39;78.13
70217;BME280;57608;0.000;0.000;2022-11-20T04:44:41;99332.84;;;-0.43;77.81
70217;BME280;57608;0.000;0.000;2022-11-20T04:47:07;99343.13;;;-0.40;77.35
70217;BME280;57608;0.000;0.000;2022-11-20T04:49:33;99353.44;;;-0.46;77.49
70217;BME280;57608;0.000;0.000;2022-11-20T04:51:59;99350.84;;;-0.41;76.74
70217;BME280;57608;0.000;0.000;2022-11-20T04:54:25;99360.28;;;-0.42;77.35
70217;BME280;57608;0.000;0.000;2022-11-20T04:56:50;99352.59;;;-0.45;76.41
70217;BME280;57608;0.000;0.000;2022-11-20T04:59:16;99350.91;;;-0.54;77.06
70217;BME280;57608;0.000;0.000;2022-11-20T05:01:42;99356.91;;;-0.53;76.63
70217;BME280;57608;0.000;0.000;2022-11-20T05:04:08;99361.22;;;-0.64;76.04
70217;BME280;57608;0.000;0.000;2022-11-20T05:06:34;99357.78;;;-0.60;76.04
70217;BME280;57608;0.000;0.000;2022-11-20T05:09:00;99356.09;;;-0.64;76.09
70217;BME280;57608;0.000;0.000;2022-11-20T05:11:27;99362.09;;;-0.65;75.25
70217;BME280;57608;0.000;0.000;2022-11-20T05:13:58;99368.94;;;-0.61;75.48
70217;BME280;57608;0.000;0.000;2022-11-20T05:16:24;99370.69;;;-0.70;75.01
70217;BME280;57608;0.000;0.000;2022-11-20T05:18:52;99374.94;;;-0.58;75.24
70217;BME280;57608;0.000;0.000;2022-11-20T05:21:18;99379.19;;;-0.49;74.96
70217;BME280;57608;0.000;0.000;2022-11-20T05:23:45;99365.47;;;-0.48;75.05
70217;BME280;57608;0.000;0.000;2022-11-20T05:26:21;99374.91;;;-0.45;74.84
70217;BME280;57608;0.000;0.000;2022-11-20T05:28:48;99383.47;;;-0.40;74.22
70217;BME280;57608;0.000;0.000;2022-11-20T05:31:22;99390.31;;;-0.42;74.33
70217;BME280;57608;0.000;0.000;2022-11-20T05:33:48;99386.03;;;-0.45;73.93
70217;BME280;57608;0.000;0.000;2022-11-20T05:36:15;99396.31;;;-0.50;74.62
70217;BME280;57608;0.000;0.000;2022-11-20T05:38:42;99404.94;;;-0.51;75.28
70217;BME280;57608;0.000;0.000;2022-11-20T05:41:09;99398.03;;;-0.38;74.59
70217;BME280;57608;0.000;0.000;2022-11-20T05:43:36;99398.84;;;-0.29;74.27
70217;BME280;57608;0.000;0.000;2022-11-20T05:46:03;99402.31;;;-0.34;75.07
70217;BME280;57608;0.000;0.000;2022-11-20T05:48:30;99404.00;;;-0.29;74.77
70217;BME280;57608;0.000;0.000;2022-11-20T05:51:00;99404.88;;;-0.44;76.34
70217;BME280;57608;0.000;0.000;2022-11-20T05:53:26;99406.63;;;-0.48;76.03
70217;BME280;57608;0.000;0.000;2022-11-20T05:56:16;99420.25;;;-0.18;76.31
70217;BME280;57608;0.000;0.000;2022-11-20T05:58:42;99420.25;;;-0.20;75.06
70217;BME280;57608;0.000;0.000;2022-11-20T06:01:15;99429.69;;;-0.14;74.77
70217;BME280;57608;0.000;0.000;2022-11-20T06:03:41;99432.28;;;-0.25;74.54
70217;BME280;57608;0.000;0.000;2022-11-20T06:06:09;99438.25;;;-0.20;74.21
70217;BME280;57608;0.000;0.000;2022-11-20T06:08:34;99437.44;;;-0.23;75.05
70217;BME280;57608;0.000;0.000;2022-11-20T06:11:05;99428.84;;;-0.22;74.88
70217;BME280;57608;0.000;0.000;2022-11-20T10:13:40;99621.94;;;1.72;69.17
70217;BME280;57608;0.000;0.000;2022-11-20T10:16:29;99618.53;;;1.67;71.12
70217;BME280;57608;0.000;0.000;2022-11-20T10:27:37;99621.06;;;1.74;72.20
70217;BME280;57608;0.000;0.000;2022-11-20T14:30:16;99757.13;;;1.63;59.68
70217;BME280;57608;0.000;0.000;2022-11-20T14:32:44;99752.84;;;1.60;59.29
70217;BME280;57608;0.000;0.000;2022-11-20T14:35:17;99762.31;;;1.63;59.58
70217;BME280;57608;0.000;0.000;2022-11-20T14:37:46;99763.16;;;1.60;59.66
70217;BME280;57608;0.000;0.000;2022-11-20T14:40:24;99772.63;;;1.58;61.61
70217;BME280;57608;0.000;0.000;2022-11-20T14:42:50;99769.19;;;1.59;60.28
70217;BME280;57608;0.000;0.000;2022-11-20T18:48:00;99783.00;;;1.51;58.35
70217;BME280;57608;0.000;0.000;2022-11-20T18:50:26;99790.75;;;1.49;59.11
70217;BME280;57608;0.000;0.000;2022-11-20T18:52:52;99789.03;;;1.51;58.26
70217;BME280;57608;0.000;0.000;2022-11-20T18:55:18;99794.19;;;1.53;57.68
70217;BME280;57608;0.000;0.000;2022-11-20T18:57:44;99777.09;;;1.31;57.57
70217;BME280;57608;0.000;0.000;2022-11-20T19:00:11;99772.81;;;1.21;57.47
70217;BME280;57608;0.000;0.000;2022-11-20T19:02:37;99772.81;;;1.23;57.47
70217;BME280;57608;0.000;0.000;2022-11-20T19:05:03;99775.41;;;1.15;57.31
70217;BME280;57608;0.000;0.000;2022-11-20T19:07:30;99772.84;;;1.17;57.13
70217;BME280;57608;0.000;0.000;2022-11-20T19:09:56;99763.41;;;1.11;57.21
70217;BME280;57608;0.000;0.000;2022-11-20T19:12:22;99770.28;;;1.09;57.61
70217;BME280;57608;0.000;0.000;2022-11-20T19:14:48;99760.84;;;1.09;57.36
70217;BME280;57608;0.000;0.000;2022-11-20T19:17:14;99743.63;;;1.04;57.25
70217;BME280;57608;0.000;0.000;2022-11-20T19:19:42;99743.66;;;0.99;57.27
70217;BME280;57608;0.000;0.000;2022-11-20T19:22:07;99748.84;;;0.91;57.43
70217;BME280;57608;0.000;0.000;2022-11-20T19:24:34;99747.09;;;0.99;57.27
70217;BME280;57608;0.000;0.000;2022-11-20T19:27:01;99749.72;;;0.90;57.61
70217;BME280;57608;0.000;0.000;2022-11-20T19:29:27;99740.28;;;0.85;57.62
70217;BME280;57608;0.000;0.000;2022-11-20T19:31:53;99739.41;;;0.81;57.62
70217;BME280;57608;0.000;0.000;2022-11-20T23:32:02;99739.47;;;0.53;59.36
70217;BME280;57608;0.000;0.000;2022-11-20T23:34:28;99736.03;;;0.56;59.34
70217;BME280;57608;0.000;0.000;2022-11-20T23:36:53;99742.91;;;0.55;60.13
70217;BME280;57608;0.000;0.000;2022-11-20T23:39:19;99738.63;;;0.51;61.69
70217;BME280;57608;0.000;0.000;2022-11-20T23:41:45;99740.34;;;0.43;65.44
70217;BME280;57608;0.000;0.000;2022-11-20T23:44:11;99742.06;;;0.52;63.73
70217;BME280;57608;0.000;0.000;2022-11-20T23:46:37;99741.19;;;0.59;62.78
70217;BME280;57608;0.000;0.000;2022-11-20T23:49:03;99731.75;;;0.58;62.01
70217;BME280;57608;0.000;0.000;2022-11-20T23:51:28;99727.41;;;0.68;61.08
70217;BME280;57608;0.000;0.000;2022-11-20T23:53:54;99726.56;;;0.62;60.88
70217;BME280;57608;0.000;0.000;2022-11-20T23:56:20;99717.97;;;0.62;61.74
70217;BME280;57608;0.000;0.000;2022-11-20T23:58:46;99711.94;;;0.60;62.89
